Time;durP1;ratioP1;P1;durP2;ratioP2;P2;SDS_P1;SDS_P2;PMS_P1;PMS_P2;Temp;Humidity;BMP_temperature;BMP_pressure;BME280_temperature;BME280_humidity;BME280_pressure;Samples;Min_cycle;Max_cycle;Signal;HPM_P1;HPM_P2
2022/09/25 00:01:40;;;;;;;222.30;7.38;;;;;;;12.72;60.23;97440.47;5045458;28;20039;-71
2022/09/25 00:04:06;;;;;;;260.13;10.80;;;;;;;12.55;60.47;97430.63;5078527;28;20438;-71
2022/09/25 00:06:32;;;;;;;200.25;7.63;;;;;;;12.73;60.18;97452.72;5060599;28;20044;-71
2022/09/25 00:09:00;;;;;;;213.13;7.03;;;;;;;12.80;60.42;97450.81;5044484;28;20146;-73
2022/09/25 00:11:31;;;;;;;225.27;7.82;;;;;;;12.74;60.36;97433.06;5061584;28;20047;-70
2022/09/25 00:14:01;;;;;;;392.27;16.00;;;;;;;12.73;60.57;97447.41;5112549;28;20492;-71
2022/09/25 00:16:30;;;;;;;62.20;3.60;;;;;;;12.88;60.16;97449.69;5045119;28;20057;-72
2022/09/25 00:21:42;;;;;;;13.63;1.73;;;;;;;12.78;60.56;97449.41;5080281;28;20043;-71
2022/09/25 00:24:12;;;;;;;711.28;34.55;;;;;;;12.79;60.62;97453.72;5061741;28;20051;-71
2022/09/25 00:26:40;;;;;;;556.80;24.25;;;;;;;12.63;60.78;97435.66;5077949;28;20346;-72
2022/09/25 00:29:07;;;;;;;521.05;25.52;;;;;;;12.59;60.96;97451.28;5060883;28;20096;-72
2022/09/25 00:31:33;;;;;;;563.50;28.63;;;;;;;12.49;61.05;97451.00;5094448;28;20039;-72
2022/09/25 00:34:01;;;;;;;568.42;27.10;;;;;;;12.61;61.16;97453.75;5060368;28;20047;-73
2022/09/25 00:36:28;;;;;;;438.75;23.38;;;;;;;12.63;61.04;97454.31;5059226;28;20085;-72
2022/09/25 00:38:54;;;;;;;374.10;16.63;;;;;;;12.54;60.61;97451.16;5043064;28;20050;-73
2022/09/25 00:41:22;;;;;;;398.73;15.65;;;;;;;12.71;60.72;97451.34;5096332;28;20369;-70
2022/09/25 00:43:50;;;;;;;267.75;10.98;;;;;;;12.72;60.86;97452.97;5063434;28;20809;-71
2022/09/25 00:46:28;;;;;;;307.65;12.43;;;;;;;12.45;61.29;97455.16;5064215;28;20380;-71
2022/09/25 00:49:09;;;;;;;155.75;7.53;;;;;;;12.75;60.98;97460.50;5066543;28;20044;-71
2022/09/25 00:51:42;;;;;;;109.05;6.97;;;;;;;12.84;60.52;97464.50;5098581;28;20488;-72
2022/09/25 00:54:30;;;;;;;316.40;14.27;;;;;;;12.79;60.89;97473.16;5050772;28;20048;-71
2022/09/25 00:56:57;;;;;;;197.23;7.53;;;;;;;12.66;60.72;97453.84;5066988;28;20055;-70
2022/09/25 00:59:29;;;;;;;255.82;9.85;;;;;;;12.75;60.46;97439.19;5066599;28;20058;-71
2022/09/25 01:01:55;;;;;;;50.67;3.20;;;;;;;12.62;60.94;97461.50;5116870;28;20492;-71
2022/09/25 01:04:22;;;;;;;62.17;4.05;;;;;;;12.70;60.45;97463.84;5064688;28;20517;-71
2022/09/25 01:06:49;;;;;;;322.75;14.43;;;;;;;12.84;60.42;97465.31;5080634;28;20066;-71
2022/09/25 01:09:15;;;;;;;480.38;19.40;;;;;;;12.85;60.72;97466.13;5080441;28;20500;-72
2022/09/25 01:11:41;;;;;;;49.15;3.72;;;;;;;12.67;60.34;97474.16;5080029;28;20059;-70
2022/09/25 01:14:08;;;;;;;51.00;4.70;;;;;;;12.79;60.22;97453.72;5096407;28;20127;-71
2022/09/25 01:16:53;;;;;;;240.23;11.65;;;;;;;13.03;59.66;97464.28;5096628;28;20035;-69
2022/09/25 01:19:18;;;;;;;161.80;8.15;;;;;;;12.70;60.27;97471.81;5079860;28;20131;-71
2022/09/25 01:21:54;;;;;;;29.35;2.67;;;;;;;13.00;59.97;97453.25;5095816;28;20081;-71
2022/09/25 01:24:57;;;;;;;312.35;15.05;;;;;;;13.08;59.70;97461.75;5080435;28;20050;-71
2022/09/25 01:27:37;;;;;;;423.85;19.90;;;;;;;13.10;59.61;97472.97;5096842;28;20043;-71
2022/09/25 01:30:06;;;;;;;512.92;23.38;;;;;;;12.96;59.85;97465.38;5063173;28;20047;-72
2022/09/25 01:32:44;;;;;;;154.32;7.25;;;;;;;13.15;59.33;97482.94;5096708;28;20458;-73
2022/09/25 01:35:15;;;;;;;13.98;2.22;;;;;;;13.00;59.52;97480.72;5062972;28;20093;-71
2022/09/25 01:38:20;;;;;;;3.17;1.95;;;;;;;13.11;59.57;97481.78;5079588;28;20048;-73
2022/09/25 01:40:54;;;;;;;5.22;1.80;;;;;;;12.69;59.94;97477.38;5077675;28;20477;-71
2022/09/25 01:43:40;;;;;;;1.95;1.50;;;;;;;13.21;59.29;97482.88;5096749;28;20047;-71
2022/09/25 01:46:18;;;;;;;27.02;2.30;;;;;;;13.20;59.30;97473.25;5046505;28;20481;-71
2022/09/25 01:48:47;;;;;;;55.13;3.35;;;;;;;13.11;59.41;97474.63;5079628;28;20035;-70
2022/09/25 01:51:18;;;;;;;2.13;1.77;;;;;;;13.26;59.32;97484.84;5080270;28;20124;-70
2022/09/25 01:53:49;;;;;;;11.30;2.53;;;;;;;13.17;59.35;97481.69;5079796;28;20036;-70
2022/09/25 01:56:21;;;;;;;3.67;1.40;;;;;;;13.31;59.38;97485.81;5095927;28;20108;-70
2022/09/25 01:58:54;;;;;;;3.45;1.40;;;;;;;13.30;59.15;97489.50;5078879;28;20036;-70
2022/09/25 02:01:28;;;;;;;1.70;1.38;;;;;;;13.22;59.25;97489.03;5079412;28;20389;-70
2022/09/25 02:04:00;;;;;;;33.58;2.55;;;;;;;13.15;59.24;97488.28;5096229;28;20048;-70
2022/09/25 02:06:26;;;;;;;2.22;1.20;;;;;;;13.17;59.29;97503.03;5096186;28;20385;-71
2022/09/25 02:09:00;;;;;;;3.80;1.40;;;;;;;13.31;58.94;97501.81;5094138;28;20381;-71
2022/09/25 02:11:30;;;;;;;1.33;1.05;;;;;;;13.21;59.03;97498.03;5043799;28;20070;-71
2022/09/25 02:14:02;;;;;;;42.17;2.25;;;;;;;13.21;58.66;97501.53;5077187;28;20079;-69
2022/09/25 02:16:37;;;;;;;3.40;1.25;;;;;;;13.22;59.02;97500.47;5093922;28;20103;-70
2022/09/25 02:21:59;;;;;;;1.73;1.08;;;;;;;13.25;59.24;97510.69;5066490;28;20044;-73
2022/09/25 02:24:32;;;;;;;2.20;0.90;;;;;;;13.18;59.35;97509.97;5096749;28;20523;-71
2022/09/25 02:26:58;;;;;;;1.13;1.02;;;;;;;12.85;59.75;97500.75;5078506;28;20130;-72
2022/09/25 02:29:24;;;;;;;8.68;1.20;;;;;;;12.90;59.39;97515.00;5043541;28;20603;-72
2022/09/25 02:31:58;;;;;;;3.13;1.05;;;;;;;13.16;59.12;97504.03;5043698;28;20473;-71
2022/09/25 02:34:24;;;;;;;10.82;1.20;;;;;;;12.74;59.17;97499.66;5093834;28;20126;-71
2022/09/25 02:36:50;;;;;;;1.33;0.93;;;;;;;12.75;59.23;97514.59;5077440;28;20456;-70
2022/09/25 02:39:18;;;;;;;0.98;0.85;;;;;;;12.94;59.24;97510.06;5078001;28;20050;-70
2022/09/25 02:42:21;;;;;;;1.60;1.00;;;;;;;12.98;59.00;97514.72;5096674;28;20413;-71
2022/09/25 02:45:13;;;;;;;2.03;1.05;;;;;;;12.75;59.43;97516.44;5098234;28;20494;-74
2022/09/25 02:48:14;;;;;;;1.30;0.90;;;;;;;13.05;59.60;97526.13;5062759;28;20142;-73
2022/09/25 02:50:50;;;;;;;1.08;1.00;;;;;;;13.09;59.33;97516.66;5045552;28;20047;-74
2022/09/25 02:53:31;;;;;;;1.10;1.00;;;;;;;12.92;59.17;97514.78;5062819;28;20082;-71
2022/09/25 02:56:11;;;;;;;2.55;1.02;;;;;;;13.06;59.55;97525.09;5114204;28;20415;-72
2022/09/25 02:58:53;;;;;;;1.33;0.97;;;;;;;12.91;59.79;97516.66;5046930;28;20461;-77
2022/09/25 03:01:21;;;;;;;0.68;0.68;;;;;;;12.85;59.40;97506.91;5078072;28;20401;-73
2022/09/25 03:03:49;;;;;;;0.85;0.80;;;;;;;13.02;59.59;97525.78;5079811;28;20050;-73
2022/09/25 03:06:16;;;;;;;2.30;0.80;;;;;;;13.04;59.46;97527.16;5080002;28;20054;-73
2022/09/25 03:08:45;;;;;;;9.88;1.60;;;;;;;13.08;59.29;97528.38;5043777;28;20128;-74
2022/09/25 03:11:17;;;;;;;1.15;0.88;;;;;;;13.15;59.31;97526.41;5093796;28;20112;-74
2022/09/25 03:13:43;;;;;;;9.27;1.10;;;;;;;12.90;58.81;97528.34;5078586;28;20213;-74
2022/09/25 03:16:30;;;;;;;13.40;1.42;;;;;;;12.92;59.11;97515.63;5078259;28;20461;-75
2022/09/25 03:18:56;;;;;;;2.65;0.85;;;;;;;12.86;59.77;97537.81;5093843;28;20087;-75
2022/09/25 03:21:22;;;;;;;4.43;1.10;;;;;;;12.66;59.58;97537.22;5093978;28;20552;-77
2022/09/25 03:23:50;;;;;;;1.83;0.90;;;;;;;12.74;59.64;97542.28;5062097;28;20047;-74
2022/09/25 03:26:16;;;;;;;1.83;1.10;;;;;;;12.91;59.53;97542.47;5078013;28;20040;-75
2022/09/25 03:28:42;;;;;;;4.00;1.05;;;;;;;12.82;59.54;97544.63;5077751;28;20062;-75
2022/09/25 03:31:11;;;;;;;1.67;1.00;;;;;;;13.27;59.61;97547.78;5077737;28;20377;-74
2022/09/25 03:33:39;;;;;;;1.20;1.08;;;;;;;13.04;58.80;97532.50;5078632;28;20045;-74
2022/09/25 03:36:11;;;;;;;2.47;0.95;;;;;;;13.01;59.26;97553.44;5095592;28;20058;-75
2022/09/25 03:38:38;;;;;;;1.33;1.00;;;;;;;13.03;59.46;97557.53;5079900;28;20040;-75
2022/09/25 03:41:08;;;;;;;1.30;1.02;;;;;;;13.10;59.34;97552.13;5078804;28;20043;-74
2022/09/25 03:43:38;;;;;;;1.27;1.00;;;;;;;13.33;58.71;97549.56;5078775;28;20035;-72
2022/09/25 03:46:05;;;;;;;1.13;0.90;;;;;;;13.00;58.34;97562.47;5044890;28;20073;-74
2022/09/25 03:48:31;;;;;;;12.32;1.20;;;;;;;12.59;59.04;97551.66;5044843;28;20039;-73
2022/09/25 03:50:57;;;;;;;0.98;0.90;;;;;;;12.73;59.60;97548.63;5060800;28;20154;-76
2022/09/25 03:53:26;;;;;;;0.80;0.80;;;;;;;12.55;59.31;97534.47;5060608;28;20050;-75
2022/09/25 03:55:52;;;;;;;1.65;0.80;;;;;;;12.53;59.29;97569.31;5077817;28;20126;-74
2022/09/25 03:58:19;;;;;;;2.05;0.80;;;;;;;11.99;60.01;97542.63;5061993;28;20101;-73
2022/09/25 04:00:46;;;;;;;1.10;0.88;;;;;;;12.42;60.31;97559.41;5096134;28;20509;-73
2022/09/25 04:03:13;;;;;;;1.00;0.90;;;;;;;12.52;59.96;97574.84;5045987;28;20035;-75
2022/09/25 04:05:40;;;;;;;1.77;0.85;;;;;;;12.29;60.13;97550.72;5079947;28;20076;-76
2022/09/25 04:08:08;;;;;;;1.00;0.82;;;;;;;12.55;59.56;97566.44;5030849;28;20134;-75
2022/09/25 04:10:37;;;;;;;1.20;0.70;;;;;;;12.43;59.73;97578.84;5045710;28;20040;-76
2022/09/25 04:13:08;;;;;;;0.70;0.70;;;;;;;12.52;59.34;97588.16;5080734;28;20493;-74
2022/09/25 04:15:35;;;;;;;1.05;0.80;;;;;;;12.09;60.22;97552.75;5098404;28;20441;-73
2022/09/25 04:18:01;;;;;;;0.80;0.80;;;;;;;12.22;59.69;97566.78;5080906;28;20047;-73
2022/09/25 04:20:27;;;;;;;2.28;0.68;;;;;;;12.07;60.07;97587.53;5046600;28;20108;-74
2022/09/25 04:22:52;;;;;;;0.60;0.60;;;;;;;12.01;59.65;97569.78;5079515;28;20079;-73
2022/09/25 04:25:20;;;;;;;2.17;0.70;;;;;;;12.13;59.80;97589.34;5096706;28;20081;-71
2022/09/25 04:27:48;;;;;;;0.60;0.60;;;;;;;12.28;60.07;97592.50;5096549;28;20420;-75
2022/09/25 04:30:14;;;;;;;3.40;0.80;;;;;;;12.40;59.63;97596.06;5080384;28;20069;-75
2022/09/25 04:35:24;;;;;;;0.55;0.55;;;;;;;11.97;60.28;97603.19;5066499;28;20035;-75
2022/09/25 04:37:51;;;;;;;1.00;0.60;;;;;;;12.10;59.94;97608.41;5044027;28;20047;-75
2022/09/25 04:40:17;;;;;;;1.05;0.70;;;;;;;11.88;60.40;97607.94;5047629;28;20043;-74
2022/09/25 04:42:43;;;;;;;1.13;0.50;;;;;;;11.96;59.89;97609.56;5077177;28;20118;-76
2022/09/25 04:45:09;;;;;;;0.93;0.50;;;;;;;11.86;60.47;97611.84;5060916;28;20052;-76
2022/09/25 04:47:34;;;;;;;1.23;0.60;;;;;;;11.89;60.71;97611.44;5047383;28;20047;-76
2022/09/25 04:50:00;;;;;;;2.85;0.60;;;;;;;11.79;60.73;97629.72;5063635;28;20038;-75
2022/09/25 04:52:28;;;;;;;0.60;0.60;;;;;;;11.84;60.47;97630.69;5050726;28;20108;-75
2022/09/25 04:54:55;;;;;;;0.73;0.60;;;;;;;11.91;60.22;97625.34;5092925;28;20047;-74
2022/09/25 04:57:22;;;;;;;0.60;0.60;;;;;;;12.19;60.32;97628.41;5076949;28;20082;-74
2022/09/25 04:59:49;;;;;;;12.52;0.82;;;;;;;12.09;60.57;97629.91;5066971;28;20122;-75
2022/09/25 05:02:15;;;;;;;0.50;0.50;;;;;;;12.18;60.35;97620.66;5047543;28;20047;-74
2022/09/25 05:04:41;;;;;;;0.68;0.50;;;;;;;12.13;59.74;97610.63;5063069;28;20032;-80
2022/09/25 05:07:07;;;;;;;0.50;0.50;;;;;;;12.27;59.41;97627.31;5046812;28;20052;-75
2022/09/25 05:09:33;;;;;;;0.50;0.50;;;;;;;12.46;59.36;97640.47;5114845;28;20062;-75
2022/09/25 05:12:01;;;;;;;0.80;0.50;;;;;;;12.13;59.84;97647.88;5047098;28;20065;-74
2022/09/25 05:14:29;;;;;;;0.60;0.60;;;;;;;11.96;59.86;97651.28;5079580;28;20070;-73
2022/09/25 05:16:55;;;;;;;7.20;0.63;;;;;;;11.92;60.06;97658.09;5047653;28;20046;-74
2022/09/25 05:19:21;;;;;;;0.60;0.60;;;;;;;12.13;60.01;97641.75;5063464;28;20052;-73
2022/09/25 05:21:47;;;;;;;1.40;0.63;;;;;;;12.36;60.12;97653.44;5046494;28;20439;-76
2022/09/25 05:24:16;;;;;;;0.70;0.70;;;;;;;12.78;59.31;97657.97;5062976;28;20051;-76
2022/09/25 05:26:42;;;;;;;1.23;0.93;;;;;;;12.55;59.23;97651.63;5047564;28;20100;-74
2022/09/25 05:29:09;;;;;;;2.55;0.90;;;;;;;12.74;59.01;97659.47;5046226;28;20043;-76
2022/09/25 05:31:41;;;;;;;0.93;0.90;;;;;;;12.51;58.78;97661.09;5082492;28;20058;-73
2022/09/25 05:34:08;;;;;;;1.10;0.90;;;;;;;12.69;58.90;97661.97;5046847;28;20040;-73
2022/09/25 05:36:34;;;;;;;1.17;0.80;;;;;;;12.66;59.21;97656.25;5095758;28;20502;-69
2022/09/25 05:39:01;;;;;;;1.88;0.60;;;;;;;12.14;58.23;97622.91;5063088;28;20031;-69
2022/09/25 05:41:27;;;;;;;0.93;0.63;;;;;;;12.38;58.62;97662.03;5062314;28;20097;-66
2022/09/25 05:43:56;;;;;;;1.60;0.93;;;;;;;12.62;59.42;97641.75;5063375;28;20055;-66
2022/09/25 05:46:22;;;;;;;1.10;0.90;;;;;;;12.90;58.85;97672.19;5078914;28;20046;-67
2022/09/25 05:48:48;;;;;;;1.98;0.77;;;;;;;13.11;58.43;97669.16;5062469;28;20044;-65
2022/09/25 05:51:14;;;;;;;0.68;0.68;;;;;;;13.20;57.71;97667.81;5078836;28;20040;-66
2022/09/25 05:53:40;;;;;;;0.70;0.70;;;;;;;12.92;57.52;97663.97;5095980;28;20089;-67
2022/09/25 05:56:06;;;;;;;0.73;0.60;;;;;;;12.93;58.01;97678.94;5095994;28;20032;-67
2022/09/25 05:58:32;;;;;;;0.93;0.70;;;;;;;13.00;57.31;97687.72;5114538;28;20070;-65
2022/09/25 06:01:03;;;;;;;2.08;0.70;;;;;;;13.28;57.52;97672.03;5095273;28;20123;-66
2022/09/25 06:03:29;;;;;;;1.90;1.20;;;;;;;13.15;57.54;97688.16;5078879;28;20039;-73
2022/09/25 06:05:58;;;;;;;0.95;0.70;;;;;;;13.49;56.71;97692.91;5078393;28;20509;-73
2022/09/25 06:08:25;;;;;;;4.68;1.67;;;;;;;13.11;57.04;97690.47;5044158;28;20124;-81
2022/09/25 06:10:53;;;;;;;1.13;0.98;;;;;;;13.09;57.71;97692.53;5061193;28;20442;-75
2022/09/25 06:13:19;;;;;;;1.67;0.90;;;;;;;12.95;57.25;97692.84;5078771;28;20039;-74
2022/09/25 06:15:51;;;;;;;1.25;0.85;;;;;;;13.16;57.24;97701.25;5045536;28;20055;-72
2022/09/25 06:18:21;;;;;;;0.63;0.60;;;;;;;13.54;56.76;97696.56;5096631;28;20039;-71
2022/09/25 06:20:47;;;;;;;1.77;1.13;;;;;;;13.73;56.20;97693.84;5045186;28;20531;-74
2022/09/25 06:23:13;;;;;;;3.35;1.35;;;;;;;13.72;56.03;97703.69;5046216;28;20089;-75
2022/09/25 06:25:40;;;;;;;2.08;1.10;;;;;;;13.57;55.71;97700.59;5046632;28;20428;-75
2022/09/25 06:28:05;;;;;;;0.80;0.80;;;;;;;13.46;55.77;97702.19;5045933;28;20045;-76
2022/09/25 06:30:33;;;;;;;1.00;0.90;;;;;;;13.85;55.91;97710.72;5044557;28;20043;-76
2022/09/25 06:33:00;;;;;;;2.17;1.10;;;;;;;13.68;55.48;97710.53;5095917;28;20275;-77
2022/09/25 06:35:28;;;;;;;1.08;0.93;;;;;;;13.86;55.36;97707.00;5063155;28;20044;-78
2022/09/25 06:37:58;;;;;;;3.28;1.10;;;;;;;14.18;55.25;97711.06;5079497;28;20448;-77
2022/09/25 06:40:26;;;;;;;3.15;0.80;;;;;;;13.99;55.06;97722.84;5047020;28;20065;-78
2022/09/25 06:42:57;;;;;;;1.48;0.90;;;;;;;14.05;54.45;97735.28;5065090;28;20059;-77
2022/09/25 06:45:25;;;;;;;2.53;0.82;;;;;;;13.72;55.05;97727.72;5095774;28;20119;-75
2022/09/25 06:47:56;;;;;;;0.63;0.63;;;;;;;13.83;54.50;97728.81;5061319;28;20066;-73
2022/09/25 06:50:30;;;;;;;;;;;;;;;14.12;53.96;97744.84;5062963;28;20067;-74
2022/09/25 06:52:59;;;;;;;0.50;0.50;;;;;;;14.01;54.18;97745.59;5079234;28;20015;-77
2022/09/25 06:55:27;;;;;;;0.70;0.68;;;;;;;13.90;53.88;97743.69;5046210;28;20478;-74
2022/09/25 06:57:53;;;;;;;1.85;0.88;;;;;;;13.54;55.36;97730.41;5045159;28;20477;-76
2022/09/25 07:00:19;;;;;;;0.70;0.60;;;;;;;13.90;55.05;97746.34;5044599;28;20039;-74
2022/09/25 07:05:32;;;;;;;1.88;0.93;;;;;;;14.29;54.38;97735.19;5080143;28;20043;-74
2022/09/25 07:07:58;;;;;;;0.70;0.65;;;;;;;13.86;54.37;97742.53;5044077;28;20123;-76
2022/09/25 07:10:28;;;;;;;0.57;0.57;;;;;;;14.16;54.29;97753.22;5044851;28;20122;-76
2022/09/25 07:12:54;;;;;;;1.85;0.60;;;;;;;14.10;54.19;97756.78;5079821;28;20120;-75
2022/09/25 07:15:21;;;;;;;1.27;1.10;;;;;;;14.26;54.08;97758.84;5044488;28;20043;-76
2022/09/25 07:17:48;;;;;;;4.43;2.03;;;;;;;14.31;53.73;97762.47;5080221;28;20130;-75
2022/09/25 07:20:16;;;;;;;2.33;0.82;;;;;;;14.34;53.17;97770.03;5079997;28;20124;-75
2022/09/25 07:22:42;;;;;;;1.02;0.90;;;;;;;14.44;53.57;97766.78;5061868;28;20050;-72
2022/09/25 07:25:09;;;;;;;0.70;0.70;;;;;;;14.42;53.59;97775.03;5094855;28;20492;-72
2022/09/25 07:27:36;;;;;;;1.42;0.70;;;;;;;14.35;53.73;97784.19;5060680;28;20547;-73
2022/09/25 07:30:03;;;;;;;0.90;0.73;;;;;;;14.43;53.69;97787.38;5077369;28;20118;-72
2022/09/25 07:32:30;;;;;;;4.10;1.13;;;;;;;14.38;53.68;97786.41;5062173;28;20048;-72
2022/09/25 07:34:57;;;;;;;0.70;0.70;;;;;;;14.46;53.10;97780.75;5046232;28;20051;-75
2022/09/25 07:37:24;;;;;;;5.97;1.90;;;;;;;14.44;54.81;97791.66;5062376;28;20481;-74
2022/09/25 07:39:49;;;;;;;2.90;2.05;;;;;;;14.48;53.02;97786.69;5043179;28;20071;-74
2022/09/25 07:42:16;;;;;;;0.63;0.63;;;;;;;14.49;52.43;97804.31;5076885;28;20094;-75
2022/09/25 07:44:42;;;;;;;1.13;0.68;;;;;;;14.56;52.30;97797.06;5058860;28;20034;-74
2022/09/25 07:47:09;;;;;;;0.60;0.60;;;;;;;13.92;52.67;97803.00;5055867;28;20059;-73
2022/09/25 07:49:39;;;;;;;1.13;0.60;;;;;;;13.93;53.95;97785.94;5094930;28;20082;-74
2022/09/25 07:52:05;;;;;;;0.90;0.75;;;;;;;13.89;53.58;97781.28;5076910;28;20403;-76
2022/09/25 07:54:31;;;;;;;0.60;0.60;;;;;;;14.26;53.13;97806.91;5080183;28;20077;-74
2022/09/25 07:56:57;;;;;;;2.63;0.73;;;;;;;14.39;53.09;97814.75;5047750;28;20203;-73
2022/09/25 07:59:23;;;;;;;1.27;1.10;;;;;;;14.52;52.86;97825.25;5043985;28;20447;-73
2022/09/25 08:01:49;;;;;;;1.08;0.60;;;;;;;14.64;51.83;97821.56;5046089;28;20035;-74
2022/09/25 08:04:14;;;;;;;0.50;0.50;;;;;;;14.72;51.16;97833.78;5028555;28;20047;-74
2022/09/25 08:06:40;;;;;;;0.85;0.75;;;;;;;14.79;51.29;97827.31;5034645;28;20047;-74
2022/09/25 08:09:06;;;;;;;0.93;0.80;;;;;;;14.81;51.03;97808.38;5063685;28;20688;-76
2022/09/25 08:11:33;;;;;;;2.45;1.15;;;;;;;15.20;51.08;97837.16;5047686;28;20072;-75
2022/09/25 08:13:58;;;;;;;2.97;0.82;;;;;;;14.99;51.08;97835.84;5115749;28;20047;-74
2022/09/25 08:16:24;;;;;;;0.70;0.70;;;;;;;15.27;50.35;97834.38;5048650;28;20058;-74
2022/09/25 08:18:52;;;;;;;4.10;1.33;;;;;;;15.55;50.12;97826.50;5044101;28;20070;-75
2022/09/25 08:21:19;;;;;;;10.63;3.05;;;;;;;15.80;49.98;97841.28;5049256;28;20051;-75
2022/09/25 08:23:51;;;;;;;1.92;1.52;;;;;;;16.04;48.79;97850.91;5094478;28;20040;-75
2022/09/25 08:26:22;;;;;;;2.85;1.00;;;;;;;16.06;49.25;97856.84;5092520;28;20050;-75
2022/09/25 08:28:49;;;;;;;1.27;0.90;;;;;;;15.89;49.40;97857.78;5078998;28;20050;-75
2022/09/25 08:31:15;;;;;;;3.33;0.95;;;;;;;15.76;49.91;97860.72;5110768;28;20059;-75
2022/09/25 08:33:48;;;;;;;2.05;1.02;;;;;;;15.74;49.09;97868.16;5035305;28;20040;-75
2022/09/25 08:36:15;;;;;;;1.30;1.00;;;;;;;15.56;49.21;97874.44;5062830;28;20047;-75
2022/09/25 08:38:41;;;;;;;1.25;1.10;;;;;;;15.28;49.86;97877.75;5079736;28;20039;-75
2022/09/25 08:41:27;;;;;;;3.25;1.50;;;;;;;15.65;50.07;97877.59;5061747;28;20519;-75
2022/09/25 08:44:19;;;;;;;6.30;1.33;;;;;;;15.48;49.20;97860.59;5061938;28;20035;-74
2022/09/25 08:49:39;;;;;;;6.93;2.00;;;;;;;15.69;49.98;97895.63;5065298;28;20061;-74
2022/09/25 08:52:10;;;;;;;7.07;1.30;;;;;;;15.44;49.72;97883.50;5078110;28;20109;-75
2022/09/25 08:54:36;;;;;;;3.15;1.70;;;;;;;15.24;50.09;97875.75;5096771;28;20384;-75
2022/09/25 08:57:15;;;;;;;6.75;1.50;;;;;;;15.60;49.61;97909.56;5046653;28;20031;-77
2022/09/25 08:59:46;;;;;;;3.63;1.48;;;;;;;15.61;49.76;97911.19;5092539;28;20031;-77
2022/09/25 09:02:19;;;;;;;4.63;1.40;;;;;;;15.27;49.07;97889.50;5070225;28;20109;-75
2022/09/25 09:04:50;;;;;;;2.70;1.48;;;;;;;15.54;49.91;97921.19;5046970;28;20100;-73
2022/09/25 09:07:26;;;;;;;8.65;2.55;;;;;;;15.68;49.06;97919.94;5114806;28;20452;-74
2022/09/25 09:10:01;;;;;;;3.95;1.40;;;;;;;15.77;48.66;97931.94;5079988;28;20099;-77
2022/09/25 09:12:34;;;;;;;4.40;1.85;;;;;;;15.82;48.62;97935.53;5063873;28;20069;-74
2022/09/25 09:15:16;;;;;;;4.80;1.25;;;;;;;15.96;47.42;97936.13;5097703;28;20126;-76
2022/09/25 09:17:42;;;;;;;1.92;1.05;;;;;;;15.80;48.05;97934.97;5098740;28;20032;-77
2022/09/25 09:20:23;;;;;;;2.97;1.60;;;;;;;16.05;47.48;97937.41;5080888;28;20134;-76
2022/09/25 09:22:51;;;;;;;4.60;1.40;;;;;;;15.92;48.02;97933.09;5047575;28;20382;-73
2022/09/25 09:25:32;;;;;;;5.88;1.52;;;;;;;16.05;47.74;97945.44;5080784;28;20047;-72
2022/09/25 09:28:21;;;;;;;3.05;1.08;;;;;;;16.11;47.20;97950.69;5064579;28;20040;-72
2022/09/25 09:30:50;;;;;;;4.18;1.30;;;;;;;15.56;47.87;97932.50;5097112;28;20148;-72
2022/09/25 09:33:53;;;;;;;2.03;1.23;;;;;;;16.02;48.42;97964.66;5062953;28;20511;-73
2022/09/25 09:36:47;;;;;;;2.78;1.33;;;;;;;15.94;48.55;97954.28;5063799;28;20055;-73
2022/09/25 09:39:48;;;;;;;4.22;1.92;;;;;;;15.89;49.30;97956.84;5078997;28;20912;-73
2022/09/25 09:42:31;;;;;;;;;;;;;;;15.92;47.82;97967.91;5049606;28;20052;-73
2022/09/25 09:45:21;;;;;;;5.63;4.13;;;;;;;15.84;48.57;97965.56;5079735;28;20345;-74
2022/09/25 09:48:28;;;;;;;6.68;4.30;;;;;;;15.84;48.50;97967.41;5063008;28;20058;-74
2022/09/25 09:51:08;;;;;;;9.50;4.50;;;;;;;15.83;48.25;97961.25;5062818;28;20061;-73
2022/09/25 09:53:55;;;;;;;10.15;5.03;;;;;;;15.87;48.47;97959.75;5079282;28;20123;-72
2022/09/25 09:56:24;;;;;;;10.80;4.90;;;;;;;15.85;48.25;97969.84;5097008;28;20051;-72
2022/09/25 09:58:50;;;;;;;9.82;5.40;;;;;;;15.75;48.80;97983.00;5046177;28;20058;-72
2022/09/25 10:01:18;;;;;;;11.65;5.30;;;;;;;15.96;48.02;97974.41;5061685;28;20043;-74
2022/09/25 10:03:47;;;;;;;9.23;5.80;;;;;;;15.85;47.55;97955.69;5061758;28;20256;-74
2022/09/25 10:06:15;;;;;;;15.43;6.00;;;;;;;16.02;47.73;97976.16;5062693;28;20048;-79
2022/09/25 10:08:42;;;;;;;10.45;5.88;;;;;;;16.03;47.81;97988.53;5077224;28;20111;-73
2022/09/25 10:11:18;;;;;;;10.00;6.15;;;;;;;16.31;46.83;97982.44;5058076;28;20543;-75
2022/09/25 10:13:44;;;;;;;9.80;5.70;;;;;;;16.17;47.15;97973.03;5043592;28;20066;-75
2022/09/25 10:16:21;;;;;;;9.95;5.90;;;;;;;16.36;46.23;97959.25;5076173;28;20042;-71
2022/09/25 10:19:27;;;;;;;8.00;5.68;;;;;;;16.67;45.03;97984.88;5059647;28;20053;-73
2022/09/25 10:21:59;;;;;;;7.70;5.43;;;;;;;16.55;45.35;97966.13;5022503;28;20041;-73
2022/09/25 10:24:50;;;;;;;8.63;5.47;;;;;;;16.95;45.06;97997.50;4995722;28;20041;-74
2022/09/25 10:27:27;;;;;;;10.30;5.03;;;;;;;16.87;44.84;97997.88;5046239;28;20054;-75
2022/09/25 10:30:17;;;;;;;9.55;5.30;;;;;;;17.06;44.74;98004.69;5092338;28;20035;-75
2022/09/25 10:33:06;;;;;;;7.35;5.28;;;;;;;17.21;44.48;98007.66;5077212;28;20489;-75
2022/09/25 10:35:38;;;;;;;10.05;5.88;;;;;;;17.10;44.99;98001.28;5040211;28;20831;-74
2022/09/25 10:38:06;;;;;;;10.70;6.40;;;;;;;16.87;44.87;98012.09;5056250;28;20067;-78
2022/09/25 10:40:37;;;;;;;9.18;6.30;;;;;;;16.84;45.62;98005.34;5058414;28;20126;-74
2022/09/25 10:43:04;;;;;;;9.82;6.15;;;;;;;16.38;45.79;97991.16;5050438;28;20039;-75
2022/09/25 10:45:35;;;;;;;9.93;6.63;;;;;;;16.68;45.54;98010.63;5041853;28;20596;-74
2022/09/25 10:51:16;;;;;;;4.38;2.92;;;;;;;16.41;45.51;98021.00;5060433;28;20039;-74
2022/09/25 10:53:42;;;;;;;6.15;2.90;;;;;;;16.17;46.22;98011.34;5060254;28;20042;-74
2022/09/25 10:56:15;;;;;;;4.68;3.10;;;;;;;16.26;45.87;98015.31;5043486;28;20428;-74
2022/09/25 10:58:45;;;;;;;4.93;2.40;;;;;;;16.18;46.31;98015.66;5060647;28;20039;-74
2022/09/25 11:01:12;;;;;;;4.25;2.45;;;;;;;16.15;46.39;98018.78;5074296;28;20054;-74
2022/09/25 11:03:46;;;;;;;3.47;2.28;;;;;;;16.30;46.21;98021.81;5061223;28;20070;-75
2022/09/25 11:06:32;;;;;;;5.60;2.13;;;;;;;16.36;45.94;98020.88;5075640;28;20051;-73
2022/09/25 11:09:14;;;;;;;2.95;2.25;;;;;;;16.37;46.11;98032.41;5059322;28;20047;-75
2022/09/25 11:11:40;;;;;;;2.45;1.90;;;;;;;16.12;46.08;98021.94;5042086;28;20035;-73
2022/09/25 11:14:39;;;;;;;3.95;2.33;;;;;;;16.40;45.58;98030.09;5092876;28;20039;-75
2022/09/25 11:17:08;;;;;;;2.42;2.00;;;;;;;16.15;46.37;98034.84;5021012;28;20769;-74
2022/09/25 11:19:37;;;;;;;4.15;2.10;;;;;;;16.19;46.05;98027.97;5058931;28;20052;-74
2022/09/25 11:22:22;;;;;;;3.92;2.33;;;;;;;16.39;46.33;98049.09;5059907;28;20039;-79
2022/09/25 11:25:00;;;;;;;3.30;2.40;;;;;;;16.38;46.28;98045.59;5041221;28;20040;-75
2022/09/25 11:27:41;;;;;;;5.82;4.40;;;;;;;16.40;45.96;98042.66;5057255;28;20130;-73
2022/09/25 11:30:11;;;;;;;3.13;2.65;;;;;;;16.22;46.16;98027.50;5090938;28;20048;-74
2022/09/25 11:32:39;;;;;;;3.13;2.38;;;;;;;16.05;46.54;98041.84;5075345;28;20517;-74
2022/09/25 11:35:11;;;;;;;3.83;2.67;;;;;;;16.01;46.30;98049.50;5074604;28;20122;-75
2022/09/25 11:38:17;;;;;;;3.35;2.80;;;;;;;16.31;45.61;98054.78;5090906;28;20039;-75
2022/09/25 11:41:15;;;;;;;5.32;2.83;;;;;;;16.30;45.77;98040.56;5038281;28;20040;-76
2022/09/25 11:43:55;;;;;;;3.08;2.70;;;;;;;16.32;45.27;98053.72;5078690;28;20044;-76
2022/09/25 11:46:28;;;;;;;3.92;2.90;;;;;;;16.31;45.38;98058.25;5094132;28;20048;-76
2022/09/25 11:49:10;;;;;;;3.75;2.63;;;;;;;16.40;45.19;98070.28;5060501;28;20095;-76
2022/09/25 11:51:49;;;;;;;5.10;2.40;;;;;;;16.43;45.18;98074.34;5060058;28;20066;-75
2022/09/25 11:54:39;;;;;;;6.10;2.95;;;;;;;16.41;45.67;98069.22;5093584;28;20131;-74
2022/09/25 11:57:12;;;;;;;7.20;2.70;;;;;;;16.28;46.01;98063.28;5076129;28;20058;-73
2022/09/25 11:59:51;;;;;;;4.65;3.08;;;;;;;16.28;45.73;98069.44;5076553;28;20105;-73
2022/09/25 12:02:53;;;;;;;5.40;2.22;;;;;;;16.36;45.02;98071.78;5112966;28;20044;-74
2022/09/25 12:05:52;;;;;;;4.75;3.38;;;;;;;16.36;45.03;98069.09;5055079;28;20093;-73
2022/09/25 12:08:35;;;;;;;4.50;3.33;;;;;;;16.48;44.86;98080.66;5052189;28;20043;-74
2022/09/25 12:11:30;;;;;;;7.47;3.13;;;;;;;16.49;45.43;98081.50;5087040;28;20048;-74